sensor_id;sensor_type;location;lat;lon;timestamp;pressure;altitude;pressure_sealevel;temperature;humidity
54592;BME280;40488;48.558;18.150;2023-02-04T00:00:48;99207.53;;;4.27;82.24
54592;BME280;40488;48.558;18.150;2023-02-04T00:03:17;99201.69;;;4.30;81.77
54592;BME280;40488;48.558;18.150;2023-02-04T00:05:46;99194.97;;;4.29;82.47
54592;BME280;40488;48.558;18.150;2023-02-04T00:08:15;99207.53;;;4.27;81.87
54592;BME280;40488;48.558;18.150;2023-02-04T00:10:43;99197.50;;;4.30;81.94
54592;BME280;40488;48.558;18.150;2023-02-04T00:13:15;99201.69;;;4.28;81.97
54592;BME280;40488;48.558;18.150;2023-02-04T00:15:45;99194.97;;;4.29;82.05
54592;BME280;40488;48.558;18.150;2023-02-04T00:18:13;99196.63;;;4.27;82.35
54592;BME280;40488;48.558;18.150;2023-02-04T00:20:42;99186.50;;;4.27;82.36
54592;BME280;40488;48.558;18.150;2023-02-04T00:23:11;99186.50;;;4.27;82.45
54592;BME280;40488;48.558;18.150;2023-02-04T00:25:40;99184.84;;;4.29;82.53
54592;BME280;40488;48.558;18.150;2023-02-04T00:28:09;99181.50;;;4.30;82.49
54592;BME280;40488;48.558;18.150;2023-02-04T00:30:39;99179.88;;;4.32;81.86
54592;BME280;40488;48.558;18.150;2023-02-04T00:33:08;99181.53;;;4.33;82.31
54592;BME280;40488;48.558;18.150;2023-02-04T00:35:37;99178.34;;;4.43;82.03
54592;BME280;40488;48.558;18.150;2023-02-04T00:38:05;99178.41;;;4.46;81.63
54592;BME280;40488;48.558;18.150;2023-02-04T00:40:34;99153.81;;;4.34;81.50
54592;BME280;40488;48.558;18.150;2023-02-04T00:43:04;99172.50;;;4.47;81.55
54592;BME280;40488;48.558;18.150;2023-02-04T00:45:32;99175.03;;;4.47;81.61
54592;BME280;40488;48.558;18.150;2023-02-04T00:48:03;99163.19;;;4.43;81.16
54592;BME280;40488;48.558;18.150;2023-02-04T00:50:32;99181.84;;;4.51;81.08
54592;BME280;40488;48.558;18.150;2023-02-04T00:53:06;99174.34;;;4.55;80.60
54592;BME280;40488;48.558;18.150;2023-02-04T00:55:35;99170.09;;;4.56;80.55
54592;BME280;40488;48.558;18.150;2023-02-04T00:58:04;99151.34;;;4.40;80.39
54592;BME280;40488;48.558;18.150;2023-02-04T01:00:33;99138.72;;;4.40;79.76
54592;BME280;40488;48.558;18.150;2023-02-04T01:03:03;99168.41;;;4.55;79.97
54592;BME280;40488;48.558;18.150;2023-02-04T01:05:32;99166.75;;;4.57;79.82
54592;BME280;40488;48.558;18.150;2023-02-04T01:08:00;99165.91;;;4.55;79.40
54592;BME280;40488;48.558;18.150;2023-02-04T01:10:29;99166.69;;;4.52;79.64
54592;BME280;40488;48.558;18.150;2023-02-04T01:12:59;99163.25;;;4.49;79.46
54592;BME280;40488;48.558;18.150;2023-02-04T01:15:28;99180.13;;;4.50;79.18
54592;BME280;40488;48.558;18.150;2023-02-04T01:17:57;99181.84;;;4.51;78.96
54592;BME280;40488;48.558;18.150;2023-02-04T01:20:27;99163.19;;;4.43;79.03
54592;BME280;40488;48.558;18.150;2023-02-04T01:22:57;99172.38;;;4.38;79.06
54592;BME280;40488;48.558;18.150;2023-02-04T01:25:25;99188.38;;;4.40;79.19
54592;BME280;40488;48.558;18.150;2023-02-04T01:27:54;99183.28;;;4.37;79.51
54592;BME280;40488;48.558;18.150;2023-02-04T01:30:23;99195.03;;;4.35;79.91
54592;BME280;40488;48.558;18.150;2023-02-04T01:32:52;99179.00;;;4.33;79.84
54592;BME280;40488;48.558;18.150;2023-02-04T01:35:20;99154.28;;;4.14;80.74
54592;BME280;40488;48.558;18.150;2023-02-04T01:37:53;99174.69;;;4.26;81.08
54592;BME280;40488;48.558;18.150;2023-02-04T01:40:21;99173.69;;;4.16;81.64
54592;BME280;40488;48.558;18.150;2023-02-04T01:42:51;99187.25;;;4.20;81.69
54592;BME280;40488;48.558;18.150;2023-02-04T01:45:20;99179.53;;;4.14;81.76
54592;BME280;40488;48.558;18.150;2023-02-04T01:47:49;99181.19;;;4.12;82.28
54592;BME280;40488;48.558;18.150;2023-02-04T01:50:18;99176.94;;;4.07;81.98
54592;BME280;40488;48.558;18.150;2023-02-04T01:52:47;99166.78;;;4.06;82.09
54592;BME280;40488;48.558;18.150;2023-02-04T01:55:21;99173.50;;;4.05;82.67
54592;BME280;40488;48.558;18.150;2023-02-04T01:57:52;99171.81;;;4.04;82.22
54592;BME280;40488;48.558;18.150;2023-02-04T02:00:24;99179.41;;;4.04;82.45
54592;BME280;40488;48.558;18.150;2023-02-04T02:02:54;99173.41;;;3.99;83.01
54592;BME280;40488;48.558;18.150;2023-02-04T02:05:26;99178.56;;;4.05;83.07
54592;BME280;40488;48.558;18.150;2023-02-04T02:08:01;99171.81;;;4.04;82.75
54592;BME280;40488;48.558;18.150;2023-02-04T02:10:33;99165.03;;;4.00;83.43
54592;BME280;40488;48.558;18.150;2023-02-04T02:13:02;99164.13;;;3.98;83.11
54592;BME280;40488;48.558;18.150;2023-02-04T02:15:32;99165.00;;;3.99;83.68
54592;BME280;40488;48.558;18.150;2023-02-04T02:18:00;99165.84;;;3.99;83.43
54592;BME280;40488;48.558;18.150;2023-02-04T02:20:30;99166.63;;;3.95;84.04
54592;BME280;40488;48.558;18.150;2023-02-04T02:23:03;99174.16;;;3.94;83.76
54592;BME280;40488;48.558;18.150;2023-02-04T02:25:37;99175.00;;;3.94;84.28
54592;BME280;40488;48.558;18.150;2023-02-04T02:28:09;99169.09;;;3.92;84.30
54592;BME280;40488;48.558;18.150;2023-02-04T02:30:39;99162.34;;;3.91;83.90
54592;BME280;40488;48.558;18.150;2023-02-04T02:33:08;99169.03;;;3.88;83.98
54592;BME280;40488;48.558;18.150;2023-02-04T02:35:37;99163.97;;;3.88;84.15
54592;BME280;40488;48.558;18.150;2023-02-04T02:38:06;99158.00;;;3.83;84.58
54592;BME280;40488;48.558;18.150;2023-02-04T02:40:36;99163.91;;;3.83;84.81
54592;BME280;40488;48.558;18.150;2023-02-04T02:43:07;99150.44;;;3.84;84.35
54592;BME280;40488;48.558;18.150;2023-02-04T02:45:38;99147.91;;;3.83;84.72
54592;BME280;40488;48.558;18.150;2023-02-04T02:48:09;99146.97;;;3.78;85.06
54592;BME280;40488;48.558;18.150;2023-02-04T02:50:38;99141.84;;;3.73;85.38
54592;BME280;40488;48.558;18.150;2023-02-04T02:53:11;99136.66;;;3.67;85.13
54592;BME280;40488;48.558;18.150;2023-02-04T02:55:43;99142.50;;;3.65;85.32
54592;BME280;40488;48.558;18.150;2023-02-04T02:58:19;99145.00;;;3.63;85.03
54592;BME280;40488;48.558;18.150;2023-02-04T03:00:48;99144.94;;;3.60;85.39
54592;BME280;40488;48.558;18.150;2023-02-04T03:03:21;99137.38;;;3.60;85.83
54592;BME280;40488;48.558;18.150;2023-02-04T03:05:55;99131.47;;;3.58;85.52
54592;BME280;40488;48.558;18.150;2023-02-04T03:08:26;99121.38;;;3.58;85.92
54592;BME280;40488;48.558;18.150;2023-02-04T03:10:56;99109.53;;;3.54;86.17
54592;BME280;40488;48.558;18.150;2023-02-04T03:13:27;99114.66;;;3.57;85.91
54592;BME280;40488;48.558;18.150;2023-02-04T03:15:56;99124.81;;;3.62;86.00
54592;BME280;40488;48.558;18.150;2023-02-04T03:18:28;99119.78;;;3.63;85.96
54592;BME280;40488;48.558;18.150;2023-02-04T03:20:57;99123.19;;;3.65;85.97
54592;BME280;40488;48.558;18.150;2023-02-04T03:23:26;99114.69;;;3.60;86.48
54592;BME280;40488;48.558;18.150;2023-02-04T03:25:56;99112.06;;;3.53;86.33
54592;BME280;40488;48.558;18.150;2023-02-04T03:28:25;99102.78;;;3.53;86.66
54592;BME280;40488;48.558;18.150;2023-02-04T03:30:54;99095.28;;;3.58;87.10
54592;BME280;40488;48.558;18.150;2023-02-04T03:33:25;99094.53;;;3.62;87.00
54592;BME280;40488;48.558;18.150;2023-02-04T03:35:57;99087.84;;;3.62;86.94
54592;BME280;40488;48.558;18.150;2023-02-04T03:38:26;99092.19;;;3.72;86.20
54592;BME280;40488;48.558;18.150;2023-02-04T03:40:57;99094.78;;;3.75;86.43
54592;BME280;40488;48.558;18.150;2023-02-04T03:43:27;99077.97;;;3.77;86.33
54592;BME280;40488;48.558;18.150;2023-02-04T03:45:55;99084.78;;;3.81;86.34
54592;BME280;40488;48.558;18.150;2023-02-04T03:48:24;99086.47;;;3.82;86.95
54592;BME280;40488;48.558;18.150;2023-02-04T03:50:53;99084.81;;;3.84;86.81
54592;BME280;40488;48.558;18.150;2023-02-04T03:53:22;99094.09;;;3.85;86.29
54592;BME280;40488;48.558;18.150;2023-02-04T03:55:50;99103.31;;;3.83;86.23
54592;BME280;40488;48.558;18.150;2023-02-04T03:58:21;99121.81;;;3.82;86.51
54592;BME280;40488;48.558;18.150;2023-02-04T04:00:50;99110.81;;;3.79;87.03
54592;BME280;40488;48.558;18.150;2023-02-04T04:03:19;99115.81;;;3.77;86.62
54592;BME280;40488;48.558;18.150;2023-02-04T04:05:48;99120.78;;;3.73;86.68
54592;BME280;40488;48.558;18.150;2023-02-04T04:08:17;99135.88;;;3.70;86.71
54592;BME280;40488;48.558;18.150;2023-02-04T04:10:46;99158.50;;;3.65;87.60
54592;BME280;40488;48.558;18.150;2023-02-04T04:13:15;99165.19;;;3.63;87.24
54592;BME280;40488;48.558;18.150;2023-02-04T04:15:45;99163.44;;;3.59;87.82
54592;BME280;40488;48.558;18.150;2023-02-04T04:18:14;99175.97;;;3.55;87.59
54592;BME280;40488;48.558;18.150;2023-02-04T04:20:43;99154.00;;;3.49;88.24
54592;BME280;40488;48.558;18.150;2023-02-04T04:23:11;99153.13;;;3.47;88.60
54592;BME280;40488;48.558;18.150;2023-02-04T04:25:40;99166.53;;;3.43;87.88
54592;BME280;40488;48.558;18.150;2023-02-04T04:28:10;99177.44;;;3.44;87.67
54592;BME280;40488;48.558;18.150;2023-02-04T04:30:38;99195.97;;;3.46;88.10
54592;BME280;40488;48.558;18.150;2023-02-04T04:33:09;99201.94;;;3.49;87.56
54592;BME280;40488;48.558;18.150;2023-02-04T04:35:38;99212.78;;;3.45;87.01
54592;BME280;40488;48.558;18.150;2023-02-04T04:38:06;99209.41;;;3.43;87.67
54592;BME280;40488;48.558;18.150;2023-02-04T04:40:36;99223.69;;;3.44;86.89
54592;BME280;40488;48.558;18.150;2023-02-04T04:43:04;99222.00;;;3.43;87.03
54592;BME280;40488;48.558;18.150;2023-02-04T04:45:33;99230.41;;;3.44;86.38
54592;BME280;40488;48.558;18.150;2023-02-04T04:48:02;99232.09;;;3.43;86.74
54592;BME280;40488;48.558;18.150;2023-02-04T04:50:32;99243.78;;;3.41;86.56
54592;BME280;40488;48.558;18.150;2023-02-04T04:53:01;99242.97;;;3.41;86.15
54592;BME280;40488;48.558;18.150;2023-02-04T04:55:30;99263.03;;;3.36;86.67
54592;BME280;40488;48.558;18.150;2023-02-04T04:58:00;99254.53;;;3.31;86.24
54592;BME280;40488;48.558;18.150;2023-02-04T05:00:28;99272.13;;;3.28;86.31
54592;BME280;40488;48.558;18.150;2023-02-04T05:02:58;99260.25;;;3.24;86.42
54592;BME280;40488;48.558;18.150;2023-02-04T05:05:27;99273.69;;;3.23;86.42
54592;BME280;40488;48.558;18.150;2023-02-04T05:07:57;99278.72;;;3.23;86.64
54592;BME280;40488;48.558;18.150;2023-02-04T05:10:26;99278.69;;;3.21;85.59
54592;BME280;40488;48.558;18.150;2023-02-04T05:12:55;99285.44;;;3.22;86.65
54592;BME280;40488;48.558;18.150;2023-02-04T05:15:24;99293.84;;;3.23;85.76
54592;BME280;40488;48.558;18.150;2023-02-04T05:17:53;99286.31;;;3.24;85.80
54592;BME280;40488;48.558;18.150;2023-02-04T05:20:22;99293.84;;;3.23;85.03
54592;BME280;40488;48.558;18.150;2023-02-04T05:22:51;99293.94;;;3.26;84.79
54592;BME280;40488;48.558;18.150;2023-02-04T05:25:21;99302.28;;;3.25;85.09
54592;BME280;40488;48.558;18.150;2023-02-04T05:27:50;99314.91;;;3.25;84.77
54592;BME280;40488;48.558;18.150;2023-02-04T05:30:19;99325.78;;;3.24;84.10
54592;BME280;40488;48.558;18.150;2023-02-04T05:32:48;99344.28;;;3.23;84.29
54592;BME280;40488;48.558;18.150;2023-02-04T05:35:18;99363.66;;;3.25;84.10
54592;BME280;40488;48.558;18.150;2023-02-04T05:37:47;99368.59;;;3.21;83.67
54592;BME280;40488;48.558;18.150;2023-02-04T05:40:16;99381.78;;;3.09;82.90
54592;BME280;40488;48.558;18.150;2023-02-04T05:42:46;99395.97;;;3.06;82.31
54592;BME280;40488;48.558;18.150;2023-02-04T05:45:15;99403.25;;;2.95;82.11
54592;BME280;40488;48.558;18.150;2023-02-04T05:47:45;99409.63;;;2.81;81.70
54592;BME280;40488;48.558;18.150;2023-02-04T05:50:14;99418.16;;;2.86;80.65
54592;BME280;40488;48.558;18.150;2023-02-04T05:52:43;99437.41;;;2.83;79.90
54592;BME280;40488;48.558;18.150;2023-02-04T05:55:12;99427.16;;;2.77;78.30
54592;BME280;40488;48.558;18.150;2023-02-04T05:57:41;99452.31;;;2.75;77.68
54592;BME280;40488;48.558;18.150;2023-02-04T06:00:13;99445.41;;;2.68;77.54
54592;BME280;40488;48.558;18.150;2023-02-04T06:02:42;99473.03;;;2.65;76.86
54592;BME280;40488;48.558;18.150;2023-02-04T06:05:10;99472.09;;;2.61;76.42
54592;BME280;40488;48.558;18.150;2023-02-04T06:07:39;99479.44;;;2.54;75.87
54592;BME280;40488;48.558;18.150;2023-02-04T06:10:09;99467.53;;;2.48;75.40
54592;BME280;40488;48.558;18.150;2023-02-04T06:12:39;99498.47;;;2.44;76.04
54592;BME280;40488;48.558;18.150;2023-02-04T06:15:08;99505.06;;;2.41;75.91
54592;BME280;40488;48.558;18.150;2023-02-04T06:17:38;99499.91;;;2.36;76.22
54592;BME280;40488;48.558;18.150;2023-02-04T06:20:09;99536.78;;;2.34;75.58
54592;BME280;40488;48.558;18.150;2023-02-04T06:22:38;99520.72;;;2.31;75.65
54592;BME280;40488;48.558;18.150;2023-02-04T06:25:07;99519.81;;;2.27;76.50
54592;BME280;40488;48.558;18.150;2023-02-04T06:27:36;99523.88;;;2.24;76.53
54592;BME280;40488;48.558;18.150;2023-02-04T06:30:05;99535.53;;;2.20;76.16
54592;BME280;40488;48.558;18.150;2023-02-04T06:32:35;99547.25;;;2.20;76.05
54592;BME280;40488;48.558;18.150;2023-02-04T06:35:06;99561.41;;;2.16;75.45
54592;BME280;40488;48.558;18.150;2023-02-04T06:37:35;99565.50;;;2.13;75.57
54592;BME280;40488;48.558;18.150;2023-02-04T06:40:04;99583.09;;;2.11;75.45
54592;BME280;40488;48.558;18.150;2023-02-04T06:42:33;99571.19;;;2.07;76.65
54592;BME280;40488;48.558;18.150;2023-02-04T06:45:03;99587.94;;;2.07;75.88
54592;BME280;40488;48.558;18.150;2023-02-04T06:47:32;99597.19;;;2.06;75.96
54592;BME280;40488;48.558;18.150;2023-02-04T06:50:00;99596.25;;;2.04;75.70
54592;BME280;40488;48.558;18.150;2023-02-04T06:52:30;99593.69;;;2.02;75.77
54592;BME280;40488;48.558;18.150;2023-02-04T06:54:59;99596.19;;;2.01;75.77
54592;BME280;40488;48.558;18.150;2023-02-04T06:57:28;99592.78;;;1.99;76.04
54592;BME280;40488;48.558;18.150;2023-02-04T06:59:58;99597.47;;;1.90;75.88
54592;BME280;40488;48.558;18.150;2023-02-04T07:02:27;99620.25;;;1.93;75.11
54592;BME280;40488;48.558;18.150;2023-02-04T07:04:56;99625.22;;;1.91;75.51
54592;BME280;40488;48.558;18.150;2023-02-04T07:07:26;99631.03;;;1.89;75.28
54592;BME280;40488;48.558;18.150;2023-02-04T07:09:56;99644.38;;;1.88;74.56
54592;BME280;40488;48.558;18.150;2023-02-04T07:12:25;99669.44;;;1.85;75.23
54592;BME280;40488;48.558;18.150;2023-02-04T07:14:54;99676.97;;;1.85;74.77
54592;BME280;40488;48.558;18.150;2023-02-04T07:17:23;99691.28;;;1.86;74.93
54592;BME280;40488;48.558;18.150;2023-02-04T07:19:52;99702.97;;;1.84;75.16
54592;BME280;40488;48.558;18.150;2023-02-04T07:22:21;99712.22;;;1.85;75.08
54592;BME280;40488;48.558;18.150;2023-02-04T07:24:50;99729.03;;;1.86;74.39
54592;BME280;40488;48.558;18.150;2023-02-04T07:27:20;99728.25;;;1.87;74.71
54592;BME280;40488;48.558;18.150;2023-02-04T07:29:48;99744.28;;;1.90;73.78
54592;BME280;40488;48.558;18.150;2023-02-04T07:32:17;99750.19;;;1.91;73.83
54592;BME280;40488;48.558;18.150;2023-02-04T07:34:46;99754.22;;;1.87;73.62
54592;BME280;40488;48.558;18.150;2023-02-04T07:37:15;99765.97;;;1.87;73.81
54592;BME280;40488;48.558;18.150;2023-02-04T07:39:44;99774.31;;;1.86;73.67
54592;BME280;40488;48.558;18.150;2023-02-04T07:42:13;99775.03;;;1.82;74.03
54592;BME280;40488;48.558;18.150;2023-02-04T07:44:51;99788.50;;;1.84;74.25
54592;BME280;40488;48.558;18.150;2023-02-04T07:47:20;99792.69;;;1.83;73.45
54592;BME280;40488;48.558;18.150;2023-02-04T07:49:49;99814.56;;;1.86;73.57
54592;BME280;40488;48.558;18.150;2023-02-04T07:52:18;99826.44;;;1.90;73.01
54592;BME280;40488;48.558;18.150;2023-02-04T07:54:47;99834.13;;;1.93;72.99
54592;BME280;40488;48.558;18.150;2023-02-04T07:57:15;99848.47;;;1.95;73.77
54592;BME280;40488;48.558;18.150;2023-02-04T07:59:46;99867.91;;;1.99;73.07
54592;BME280;40488;48.558;18.150;2023-02-04T08:02:16;99876.56;;;2.06;73.17
54592;BME280;40488;48.558;18.150;2023-02-04T08:04:45;99876.63;;;2.09;72.66
54592;BME280;40488;48.558;18.150;2023-02-04T08:07:14;99886.81;;;2.12;72.19
54592;BME280;40488;48.558;18.150;2023-02-04T08:09:43;99897.00;;;2.15;72.92
54592;BME280;40488;48.558;18.150;2023-02-04T08:12:13;99906.22;;;2.15;72.25
54592;BME280;40488;48.558;18.150;2023-02-04T08:14:42;99902.84;;;2.14;72.72
54592;BME280;40488;48.558;18.150;2023-02-04T08:17:10;99920.00;;;2.24;72.78
54592;BME280;40488;48.558;18.150;2023-02-04T08:19:41;99944.22;;;2.21;73.43
54592;BME280;40488;48.558;18.150;2023-02-04T08:22:10;99943.19;;;2.16;73.07
54592;BME280;40488;48.558;18.150;2023-02-04T08:24:39;99954.81;;;2.14;73.60
54592;BME280;40488;48.558;18.150;2023-02-04T08:27:08;99953.00;;;2.10;73.55
54592;BME280;40488;48.558;18.150;2023-02-04T08:29:37;99957.31;;;2.12;73.76
54592;BME280;40488;48.558;18.150;2023-02-04T08:32:06;99978.25;;;2.11;73.36
54592;BME280;40488;48.558;18.150;2023-02-04T08:34:36;99994.16;;;2.10;73.55
54592;BME280;40488;48.558;18.150;2023-02-04T08:37:06;99981.59;;;2.12;73.66
54592;BME280;40488;48.558;18.150;2023-02-04T08:39:36;99999.19;;;2.10;73.12
54592;BME280;40488;48.558;18.150;2023-02-04T08:42:05;100008.34;;;2.08;72.78
54592;BME280;40488;48.558;18.150;2023-02-04T08:44:34;100007.31;;;2.03;72.98
54592;BME280;40488;48.558;18.150;2023-02-04T08:47:03;100019.06;;;2.04;72.28
54592;BME280;40488;48.558;18.150;2023-02-04T08:49:32;100030.75;;;2.02;72.70
54592;BME280;40488;48.558;18.150;2023-02-04T08:52:00;100034.16;;;2.04;72.24
54592;BME280;40488;48.558;18.150;2023-02-04T08:54:32;100037.38;;;2.00;72.97
54592;BME280;40488;48.558;18.150;2023-02-04T08:57:02;100049.63;;;1.91;72.47
54592;BME280;40488;48.558;18.150;2023-02-04T08:59:30;100073.03;;;1.90;72.30
54592;BME280;40488;48.558;18.150;2023-02-04T09:01:59;100085.53;;;1.87;73.00
54592;BME280;40488;48.558;18.150;2023-02-04T09:04:29;100074.59;;;1.86;71.89
54592;BME280;40488;48.558;18.150;2023-02-04T09:06:58;100100.63;;;1.87;72.74
54592;BME280;40488;48.558;18.150;2023-02-04T09:09:27;100088.97;;;1.89;71.91
54592;BME280;40488;48.558;18.150;2023-02-04T09:11:57;100114.25;;;1.92;71.70
54592;BME280;40488;48.558;18.150;2023-02-04T09:14:26;100116.81;;;1.93;71.28
54592;BME280;40488;48.558;18.150;2023-02-04T09:16:55;100128.66;;;1.96;71.97
54592;BME280;40488;48.558;18.150;2023-02-04T09:19:23;100124.50;;;1.96;71.83
54592;BME280;40488;48.558;18.150;2023-02-04T09:21:53;100140.38;;;1.95;71.25
54592;BME280;40488;48.558;18.150;2023-02-04T09:24:22;100160.38;;;1.92;70.85
54592;BME280;40488;48.558;18.150;2023-02-04T09:26:50;100163.00;;;1.94;71.55
54592;BME280;40488;48.558;18.150;2023-02-04T09:29:21;100176.41;;;1.94;71.02
54592;BME280;40488;48.558;18.150;2023-02-04T09:31:49;100198.31;;;1.97;70.61
54592;BME280;40488;48.558;18.150;2023-02-04T09:34:18;100214.25;;;1.96;70.78
54592;BME280;40488;48.558;18.150;2023-02-04T09:36:47;100218.34;;;1.94;70.46
54592;BME280;40488;48.558;18.150;2023-02-04T09:39:16;100210.91;;;1.97;71.03
54592;BME280;40488;48.558;18.150;2023-02-04T09:41:45;100222.66;;;1.96;70.75
54592;BME280;40488;48.558;18.150;2023-02-04T09:44:16;100235.28;;;1.98;70.41
54592;BME280;40488;48.558;18.150;2023-02-04T09:46:49;100241.53;;;2.06;70.36
54592;BME280;40488;48.558;18.150;2023-02-04T09:49:18;100244.28;;;2.12;69.36
54592;BME280;40488;48.558;18.150;2023-02-04T09:51:48;100223.75;;;2.03;69.28
54592;BME280;40488;48.558;18.150;2023-02-04T09:54:18;100243.53;;;2.15;68.91
54592;BME280;40488;48.558;18.150;2023-02-04T09:56:48;100254.63;;;2.18;68.82
54592;BME280;40488;48.558;18.150;2023-02-04T09:59:18;100264.69;;;2.18;68.99
54592;BME280;40488;48.558;18.150;2023-02-04T10:01:53;100270.63;;;2.20;68.90
54592;BME280;40488;48.558;18.150;2023-02-04T10:04:23;100259.50;;;2.15;68.62
54592;BME280;40488;48.558;18.150;2023-02-04T10:06:52;100276.31;;;2.16;68.72
54592;BME280;40488;48.558;18.150;2023-02-04T10:09:25;100261.31;;;2.18;68.31
54592;BME280;40488;48.558;18.150;2023-02-04T10:11:54;100288.38;;;2.23;68.22
54592;BME280;40488;48.558;18.150;2023-02-04T10:14:22;100292.44;;;2.40;67.91
54592;BME280;40488;48.558;18.150;2023-02-04T10:16:55;100302.94;;;2.49;68.15
54592;BME280;40488;48.558;18.150;2023-02-04T10:19:26;100300.50;;;2.52;67.05
54592;BME280;40488;48.558;18.150;2023-02-04T10:21:56;100295.00;;;2.61;66.61
54592;BME280;40488;48.558;18.150;2023-02-04T10:24:26;100318.22;;;2.75;66.86
54592;BME280;40488;48.558;18.150;2023-02-04T10:27:06;100315.69;;;2.95;66.88
54592;BME280;40488;48.558;18.150;2023-02-04T10:29:36;100324.59;;;3.08;66.89
54592;BME280;40488;48.558;18.150;2023-02-04T10:32:26;100332.91;;;3.26;66.84
54592;BME280;40488;48.558;18.150;2023-02-04T10:34:56;100331.28;;;3.28;66.64
54592;BME280;40488;48.558;18.150;2023-02-04T10:37:26;100331.53;;;3.34;65.84
54592;BME280;40488;48.558;18.150;2023-02-04T10:39:55;100345.34;;;3.44;65.04
54592;BME280;40488;48.558;18.150;2023-02-04T10:42:26;100357.47;;;3.52;65.11
54592;BME280;40488;48.558;18.150;2023-02-04T10:44:56;100348.13;;;3.29;65.22
54592;BME280;40488;48.558;18.150;2023-02-04T10:47:28;100385.47;;;3.17;64.76
54592;BME280;40488;48.558;18.150;2023-02-04T10:50:00;100367.41;;;3.06;65.83
54592;BME280;40488;48.558;18.150;2023-02-04T10:52:35;100387.59;;;3.06;66.32
54592;BME280;40488;48.558;18.150;2023-02-04T10:55:11;100393.16;;;2.79;66.05
54592;BME280;40488;48.558;18.150;2023-02-04T10:57:43;100420.16;;;2.62;66.02
54592;BME280;40488;48.558;18.150;2023-02-04T11:00:18;100420.66;;;2.53;66.38
54592;BME280;40488;48.558;18.150;2023-02-04T11:02:54;100423.72;;;2.46;66.03
54592;BME280;40488;48.558;18.150;2023-02-04T11:05:29;100432.72;;;2.41;66.66
54592;BME280;40488;48.558;18.150;2023-02-04T11:07:58;100431.78;;;2.39;66.05
54592;BME280;40488;48.558;18.150;2023-02-04T11:10:29;100446.09;;;2.40;66.56
54592;BME280;40488;48.558;18.150;2023-02-04T11:13:01;100449.13;;;2.33;65.67
54592;BME280;40488;48.558;18.150;2023-02-04T11:15:54;100477.13;;;2.39;65.11
54592;BME280;40488;48.558;18.150;2023-02-04T11:18:28;100487.47;;;2.45;65.24
54592;BME280;40488;48.558;18.150;2023-02-04T11:20:58;100495.41;;;2.54;64.54
54592;BME280;40488;48.558;18.150;2023-02-04T11:23:35;100493.84;;;2.56;63.31
54592;BME280;40488;48.558;18.150;2023-02-04T11:26:08;100512.47;;;2.60;62.79
54592;BME280;40488;48.558;18.150;2023-02-04T11:28:46;100515.47;;;2.70;63.50
54592;BME280;40488;48.558;18.150;2023-02-04T11:31:27;100534.19;;;2.76;62.67
54592;BME280;40488;48.558;18.150;2023-02-04T11:34:11;100534.63;;;3.05;61.77
54592;BME280;40488;48.558;18.150;2023-02-04T11:37:04;100529.97;;;3.33;61.33
54592;BME280;40488;48.558;18.150;2023-02-04T11:39:36;100543.31;;;3.31;61.74
54592;BME280;40488;48.558;18.150;2023-02-04T11:42:16;100553.81;;;3.21;61.70
54592;BME280;40488;48.558;18.150;2023-02-04T11:44:53;100557.84;;;2.98;61.37
54592;BME280;40488;48.558;18.150;2023-02-04T11:47:25;100549.69;;;2.85;61.20
54592;BME280;40488;48.558;18.150;2023-02-04T11:49:58;100556.38;;;2.84;61.54
54592;BME280;40488;48.558;18.150;2023-02-04T11:52:29;100564.53;;;2.79;62.27
54592;BME280;40488;48.558;18.150;2023-02-04T11:54:59;100579.41;;;2.72;61.83
54592;BME280;40488;48.558;18.150;2023-02-04T11:57:27;100575.66;;;2.64;62.02
54592;BME280;40488;48.558;18.150;2023-02-04T11:59:58;100585.47;;;2.58;62.41
54592;BME280;40488;48.558;18.150;2023-02-04T12:02:27;100581.75;;;2.50;62.70
54592;BME280;40488;48.558;18.150;2023-02-04T12:05:11;100581.75;;;2.50;61.91
54592;BME280;40488;48.558;18.150;2023-02-04T12:07:41;100592.38;;;2.62;62.29
54592;BME280;40488;48.558;18.150;2023-02-04T12:10:14;100601.97;;;2.89;62.28
54592;BME280;40488;48.558;18.150;2023-02-04T12:12:51;100601.06;;;3.25;61.12
54592;BME280;40488;48.558;18.150;2023-02-04T12:15:23;100599.94;;;3.58;60.30
54592;BME280;40488;48.558;18.150;2023-02-04T12:18:04;100611.06;;;3.82;58.78
54592;BME280;40488;48.558;18.150;2023-02-04T12:20:35;100595.84;;;4.01;58.31
54592;BME280;40488;48.558;18.150;2023-02-04T12:23:04;100608.84;;;4.11;57.24
54592;BME280;40488;48.558;18.150;2023-02-04T12:25:34;100612.88;;;4.28;57.13
54592;BME280;40488;48.558;18.150;2023-02-04T12:28:03;100625.47;;;4.05;56.61
54592;BME280;40488;48.558;18.150;2023-02-04T12:30:32;100625.00;;;4.14;56.54
54592;BME280;40488;48.558;18.150;2023-02-04T12:33:02;100615.75;;;4.15;55.36
54592;BME280;40488;48.558;18.150;2023-02-04T12:35:31;100625.28;;;4.01;56.18
54592;BME280;40488;48.558;18.150;2023-02-04T12:38:01;100608.19;;;3.54;56.20
54592;BME280;40488;48.558;18.150;2023-02-04T12:40:30;100640.69;;;3.47;57.09
54592;BME280;40488;48.558;18.150;2023-02-04T12:42:59;100618.56;;;3.03;56.81
54592;BME280;40488;48.558;18.150;2023-02-04T12:45:28;100667.28;;;3.02;57.49
54592;BME280;40488;48.558;18.150;2023-02-04T12:47:57;100670.41;;;2.79;58.43
54592;BME280;40488;48.558;18.150;2023-02-04T12:50:26;100667.41;;;2.50;60.86
54592;BME280;40488;48.558;18.150;2023-02-04T12:52:56;100661.06;;;2.41;62.06
54592;BME280;40488;48.558;18.150;2023-02-04T12:55:27;100670.00;;;2.34;62.30
54592;BME280;40488;48.558;18.150;2023-02-04T12:57:57;100673.63;;;2.23;63.86
54592;BME280;40488;48.558;18.150;2023-02-04T13:00:25;100676.91;;;2.21;65.22
54592;BME280;40488;48.558;18.150;2023-02-04T13:02:54;100678.38;;;2.17;66.09
54592;BME280;40488;48.558;18.150;2023-02-04T13:05:25;100677.53;;;2.34;66.86
54592;BME280;40488;48.558;18.150;2023-02-04T13:07:54;100672.06;;;2.60;66.49
54592;BME280;40488;48.558;18.150;2023-02-04T13:10:23;100676.88;;;2.91;66.28
54592;BME280;40488;48.558;18.150;2023-02-04T13:12:53;100688.84;;;2.78;65.05